Terminal Aerodrome Forecast (TAF)

TAF

Data at: 1530 UTC 02 Jul 2020

TAF for:NVSC (Sola/Vanua Lava Arpt, --, NV) issued at 1000 UTC 02 Jul 2020
Text:TAF NVSC 021000Z 0212/0312 13010KT 9999 BKN020 OVC040
Forecast period:1200 UTC 02 July 2020 to 1200 UTC 03 July 2020
Forecast type:FROM: standard forecast or significant change
Winds:from the SE (130 degrees) at 12 MPH (10 knots; 5.1 m/s)
Visibility:6 or more sm (10+ km)
Ceiling:2000 feet AGL
Clouds: broken clouds at 2000 feet AGL, overcast cloud deck at 4000 feet AGL
Text:INTER 0212/0218 9000 SHRA BKN018 OVC040
Forecast period:1200 to 1800 UTC 02 July 2020
Forecast type:TEMPORARY: The following changes expected for less than half the time period
Visibility: 6 sm ( 9 km)
Ceiling:1800 feet AGL
Clouds: broken clouds at 1800 feet AGL, overcast cloud deck at 4000 feet AGL
Weather:SHRA (rain showers)

TAF

Data at: 1530 UTC 02 Jul 2020

TAF for:NVSG (Longana Arpt, --, NV) issued at 1000 UTC 02 Jul 2020
Text:TAF NVSG 021000Z 0212/0312 14010KT 9999 BKN020
Forecast period:1200 UTC 02 July 2020 to 1200 UTC 03 July 2020
Forecast type:FROM: standard forecast or significant change
Winds:from the SE (140 degrees) at 12 MPH (10 knots; 5.1 m/s)
Visibility:6 or more sm (10+ km)
Ceiling:2000 feet AGL
Clouds: broken clouds at 2000 feet AGL

TAF

Data at: 1530 UTC 02 Jul 2020

TAF for:NVSS (Santo/Pekoa Intl, --, NV) issued at 1000 UTC 02 Jul 2020
Text:TAF NVSS 021000Z 0212/0312 14008KT 9999 SCT020 BKN040
Forecast period:1200 UTC 02 July 2020 to 1200 UTC 03 July 2020
Forecast type:FROM: standard forecast or significant change
Winds:from the SE (140 degrees) at 9 MPH (8 knots; 4.1 m/s)
Visibility:6 or more sm (10+ km)
Ceiling:4000 feet AGL
Clouds: scattered clouds at 2000 feet AGL, broken clouds at 4000 feet AGL
Text:INTER 0212/0215 9000 -SHRA BKN018
Forecast period:1200 to 1500 UTC 02 July 2020
Forecast type:TEMPORARY: The following changes expected for less than half the time period
Visibility: 6 sm ( 9 km)
Ceiling:1800 feet AGL
Clouds: broken clouds at 1800 feet AGL
Weather:-SHRA (light rain showers)

TAF

Data at: 1530 UTC 02 Jul 2020

TAF for:NVSL (Malekula/Lamap, --, NV) issued at 1000 UTC 02 Jul 2020
Text:TAF NVSL 021000Z 0212/0312 14010KT 9999 SCT020 BKN040
Forecast period:1200 UTC 02 July 2020 to 1200 UTC 03 July 2020
Forecast type:FROM: standard forecast or significant change
Winds:from the SE (140 degrees) at 12 MPH (10 knots; 5.1 m/s)
Visibility:6 or more sm (10+ km)
Ceiling:4000 feet AGL
Clouds: scattered clouds at 2000 feet AGL, broken clouds at 4000 feet AGL

TAF

Data at: 1530 UTC 02 Jul 2020

TAF for:NVSP (Norsup Arpt, --, NV) issued at 1000 UTC 02 Jul 2020
Text:TAF NVSP 021000Z 0212/0312 13010KT 9999 SCT020 BKN040
Forecast period:1200 UTC 02 July 2020 to 1200 UTC 03 July 2020
Forecast type:FROM: standard forecast or significant change
Winds:from the SE (130 degrees) at 12 MPH (10 knots; 5.1 m/s)
Visibility:6 or more sm (10+ km)
Ceiling:4000 feet AGL
Clouds: scattered clouds at 2000 feet AGL, broken clouds at 4000 feet AGL

TAF

Data at: 1530 UTC 02 Jul 2020

TAF for:NVVV (Efate/Bauerfield Int, --, NV) issued at 1000 UTC 02 Jul 2020
Text:TAF NVVV 021000Z 0212/0312 13010KT 9999 FEW020 BKN040
Forecast period:1200 UTC 02 July 2020 to 1200 UTC 03 July 2020
Forecast type:FROM: standard forecast or significant change
Winds:from the SE (130 degrees) at 12 MPH (10 knots; 5.1 m/s)
Visibility:6 or more sm (10+ km)
Ceiling:4000 feet AGL
Clouds: few clouds at 2000 feet AGL, broken clouds at 4000 feet AGL

TAF

Data at: 1530 UTC 02 Jul 2020

TAF for:NVVW (Tanna Arpt, --, NV) issued at 1000 UTC 02 Jul 2020
Text:TAF NVVW 021000Z 0212/0312 13005KT 9999 SCT022
Forecast period:1200 UTC 02 July 2020 to 1200 UTC 03 July 2020
Forecast type:FROM: standard forecast or significant change
Winds:from the SE (130 degrees) at 6 MPH (5 knots; 2.6 m/s)
Visibility:6 or more sm (10+ km)
Ceiling:at least 12,000 feet AGL
Clouds: scattered clouds at 2200 feet AGL

TAF

Data at: 1530 UTC 02 Jul 2020

TAF for:NVVA (Aneityum/Mystery Isl, --, NV) issued at 1000 UTC 02 Jul 2020
Text:TAF NVVA 021000Z 0212/0312 13005KT 9999 SCT022
Forecast period:1200 UTC 02 July 2020 to 1200 UTC 03 July 2020
Forecast type:FROM: standard forecast or significant change
Winds:from the SE (130 degrees) at 6 MPH (5 knots; 2.6 m/s)
Visibility:6 or more sm (10+ km)
Ceiling:at least 12,000 feet AGL
Clouds: scattered clouds at 2200 feet AGL

TAF

Data at: 1535 UTC 02 Jul 2020

TAF NVVV 021000Z 0212/0312 13010KT 9999 FEW020 BKN040
TAF NVSC 021000Z 0212/0312 13010KT 9999 BKN020 OVC040
  INTER 0212/0218 9000 SHRA BKN018 OVC040
TAF NVSG 021000Z 0212/0312 14010KT 9999 BKN020
TAF NVSS 021000Z 0212/0312 14008KT 9999 SCT020 BKN040
  INTER 0212/0215 9000 -SHRA BKN018
TAF NVSL 021000Z 0212/0312 14010KT 9999 SCT020 BKN040
TAF NVSP 021000Z 0212/0312 13010KT 9999 SCT020 BKN040
TAF NVVW 021000Z 0212/0312 13005KT 9999 SCT022
TAF NVVA 021000Z 0212/0312 13005KT 9999 SCT022